Latest Weather Observations for Bougainville Reef

IDQ60801

Issued at 11:22 pm EST Tuesday 23 July 2019 (issued every 10 minutes, with the page automatically refreshed every 10 minutes)

About weather observations | Map of weather stations | Latest weather observations for QLD | Other Formats
Station Details ID: 200840 Name: BOUGAINVILLE REEF Lat: -15.49 Lon: 147.12 Height: 0.0 m
Data from the previous 72 hours. | See also: Recent months for locations in Queensland
Date/Time
EST
Temp
°C
App
Temp
°C
Dew
Point
°C
Rel
Hum
%
Delta-T
°C
Wind Press
QNH
hPa
Press
MSL
hPa
Rain since
9am
mm
Dir  Spd
km/h
Gust
km/h
Spd
kts
Gust
kts
23/11:00pm - - - - - ESE 41 48 22 26 1017.0 1016.9 -
23/10:30pm - - - - - ESE 43 54 23 29 1017.2 1017.1 -
23/10:09pm - - - - - SE 43 61 23 33 1017.0 1016.9 -
23/10:00pm - - - - - SE 46 52 25 28 1017.1 1017.0 -
23/09:30pm - - - - - ESE 43 50 23 27 1016.9 1016.8 -
23/09:00pm - - - - - ESE 44 54 24 29 1016.7 1016.6 -
23/08:30pm - - - - - SE 46 57 25 31 1016.5 1016.4 -
23/08:00pm - - - - - ESE 46 56 25 30 1016.2 1016.1 -
23/07:30pm - - - - - ESE 46 52 25 28 1016.1 1016.0 -
23/07:00pm - - - - - ESE 48 57 26 31 1015.8 1015.7 -
23/06:30pm - - - - - ESE 48 56 26 30 1015.5 1015.4 -
23/06:00pm - - - - - SE 46 57 25 31 1015.1 1015.0 -
23/05:30pm - - - - - SE 48 56 26 30 1014.8 1014.7 -
23/05:00pm - - - - - SE 50 59 27 32 1014.4 1014.3 -
23/04:30pm - - - - - SE 48 56 26 30 1014.2 1014.1 -
23/04:00pm - - - - - ESE 50 57 27 31 1014.0 1013.9 -
23/03:30pm - - - - - SE 46 54 25 29 1013.9 1013.8 -
23/03:00pm - - - - - ESE 44 52 24 28 1013.9 1013.8 -
23/02:30pm - - - - - ESE 48 56 26 30 1013.8 1013.7 -
23/02:00pm - - - - - ESE 44 50 24 27 1014.0 1013.9 -
23/01:30pm - - - - - ESE 46 52 25 28 1014.3 1014.2 -
23/01:00pm - - - - - E 35 46 19 25 1014.8 1014.7 -
23/12:57pm - - - - - E 37 46 20 25 1014.8 - -
23/12:52pm - - - - - E 37 43 20 23 1014.8 1014.7 -
23/12:30pm - - - - - SE 37 50 20 27 1015.0 1014.9 -
23/12:28pm - - - - - SE 35 50 19 27 1015.0 - -
23/12:26pm - - - - - SE 32 46 17 25 1015.1 1015.0 -
23/12:00pm - - - - - SE 26 28 14 15 1015.4 1015.3 -
23/11:30am - - - - - SE 19 20 10 11 1015.7 - -
23/11:00am - - - - - E 20 26 11 14 1015.9 1015.8 -
23/10:30am - - - - - ESE 30 35 16 19 1015.9 - -
23/10:00am - - - - - SE 28 32 15 17 1016.1 1016.0 -
23/09:30am - - - - - SE 32 35 17 19 1016.0 - -
23/09:00am - - - - - SSE 30 32 16 17 1015.9 1015.8 -
23/08:30am - - - - - SE 28 32 15 17 1015.6 - -
23/08:00am - - - - - SSE 26 30 14 16 1015.4 1015.3 -
23/07:30am - - - - - SE 26 30 14 16 1015.0 - -
23/07:00am - - - - - SSE 26 28 14 15 1014.8 1014.7 -
23/06:30am - - - - - SSE 28 32 15 17 1014.6 1014.5 -
23/06:00am - - - - - SSE 28 33 15 18 1014.3 1014.2 -
23/05:30am - - - - - SSE 28 35 15 19 1014.0 - -
23/05:00am - - - - - SSE 30 37 16 20 1013.9 1013.8 -
23/04:30am - - - - - SSE 33 37 18 20 1013.7 1013.6 -
23/04:00am - - - - - SSE 32 37 17 20 1013.8 1013.7 -
23/03:30am - - - - - SSE 37 43 20 23 1013.6 1013.5 -
23/03:00am - - - - - SSE 39 43 21 23 1013.7 1013.6 -
23/02:30am - - - - - SSE 37 43 20 23 1013.8 1013.7 -
23/02:00am - - - - - S 39 44 21 24 1013.9 1013.8 -
23/01:30am - - - - - SSE 39 48 21 26 1014.1 - -
23/01:00am - - - - - S 37 46 20 25 1014.8 1014.7 -
23/12:30am - - - - - SSE 35 44 19 24 1014.9 1014.8 -
23/12:00am - - - - - S 35 41 19 22 1015.0 1014.9 -
 
Date/Time
EST
Temp
°C
App
Temp
°C
Dew
Point
°C
Rel
Hum
%
Delta-T
°C
Wind Press
QNH
hPa
Press
MSL
hPa
Rain since
9am
mm
Dir  Spd
km/h
Gust
km/h
Spd
kts
Gust
kts
22/11:30pm - - - - - S 35 41 19 22 1015.0 - -
22/11:00pm - - - - - SSE 37 43 20 23 1015.2 1015.1 -
22/10:30pm - - - - - SSE 39 44 21 24 1015.3 - -
22/10:00pm - - - - - SSE 39 46 21 25 1015.3 1015.2 -
22/09:30pm - - - - - SSE 39 46 21 25 1015.1 - -
22/09:00pm - - - - - SSE 44 50 24 27 1014.8 1014.6 -
22/08:30pm - - - - - SSE 37 44 20 24 1014.5 - -
22/08:00pm - - - - - SSE 39 44 21 24 1014.2 1014.1 -
22/07:30pm - - - - - SSE 39 44 21 24 1013.9 1013.8 -
22/07:00pm - - - - - S 39 46 21 25 1013.5 1013.4 -
22/06:30pm - - - - - S 39 44 21 24 1013.2 - -
22/06:00pm - - - - - S 43 44 23 24 1013.1 1013.0 -
22/05:30pm - - - - - S 35 43 19 23 1013.0 - -
22/05:00pm - - - - - S 33 37 18 20 1012.7 1012.6 -
22/04:30pm - - - - - S 32 39 17 21 1012.6 - -
22/04:00pm - - - - - SSE 37 43 20 23 1012.4 1012.3 -
22/03:30pm - - - - - SSE 37 44 20 24 1012.1 - -
22/03:00pm - - - - - S 39 44 21 24 1012.0 1011.9 -
22/02:30pm - - - - - S 41 48 22 26 1011.8 - -
22/02:00pm - - - - - S 41 46 22 25 1011.9 1011.8 -
22/01:30pm - - - - - S 39 44 21 24 1012.3 - -
22/01:00pm - - - - - S 37 43 20 23 1012.8 1012.7 -
22/12:30pm - - - - - S 37 43 20 23 1013.3 - -
22/12:00pm - - - - - S 39 44 21 24 1013.7 1013.6 -
22/11:30am - - - - - S 37 44 20 24 1014.1 - -
22/11:00am - - - - - SSE 39 44 21 24 1014.3 1014.2 -
22/10:30am - - - - - S 37 43 20 23 1014.6 - -
22/10:00am - - - - - SSE 35 41 19 22 1014.9 1014.8 -
22/09:30am - - - - - SSE 33 39 18 21 1014.9 - -
22/09:00am - - - - - SSE 33 37 18 20 1014.8 1014.7 -
22/08:30am - - - - - SSE 33 39 18 21 1014.6 - -
22/08:00am - - - - - SSE 33 39 18 21 1014.1 1014.0 -
22/07:30am - - - - - SSE 33 39 18 21 1014.1 - -
22/07:00am - - - - - SSE 35 39 19 21 1013.8 1013.7 -
22/06:30am - - - - - SSE 33 39 18 21 1013.6 - -
22/06:00am - - - - - SE 35 39 19 21 1013.5 1013.3 -
22/05:30am - - - - - SE 33 39 18 21 1013.2 - -
22/05:00am - - - - - SSE 35 43 19 23 1013.0 1012.9 -
22/04:30am - - - - - SE 35 39 19 21 1012.9 1012.8 -
22/04:00am - - - - - SE 33 39 18 21 1012.8 1012.7 -
22/03:30am - - - - - SE 33 39 18 21 1013.0 - -
22/03:00am - - - - - SE 33 39 18 21 1013.0 1012.9 -
22/02:30am - - - - - SSE 33 37 18 20 1013.1 - -
22/02:00am - - - - - SSE 32 39 17 21 1013.4 1013.3 -
22/01:30am - - - - - SE 32 37 17 20 1013.7 - -
22/01:00am - - - - - SE 32 35 17 19 1013.8 1013.7 -
22/12:30am - - - - - SE 32 35 17 19 1014.1 - -
22/12:00am - - - - - SE 28 35 15 19 1014.2 1014.1 -
 
Date/Time
EST
Temp
°C
App
Temp
°C
Dew
Point
°C
Rel
Hum
%
Delta-T
°C
Wind Press
QNH
hPa
Press
MSL
hPa
Rain since
9am
mm
Dir  Spd
km/h
Gust
km/h
Spd
kts
Gust
kts
21/11:30pm - - - - - SE 28 33 15 18 1014.3 - -
21/11:00pm - - - - - SE 30 35 16 19 1014.5 1014.4 -
21/10:30pm - - - - - SE 32 35 17 19 1014.6 - -
21/10:00pm - - - - - SE 32 35 17 19 1014.7 1014.6 -
21/09:30pm - - - - - SE 32 35 17 19 1014.7 - -
21/09:00pm - - - - - SE 33 39 18 21 1014.5 1014.4 -
21/08:30pm - - - - - SE 32 35 17 19 1014.4 - -
21/08:00pm - - - - - SE 32 35 17 19 1014.2 1014.1 -
21/07:30pm - - - - - SE 33 37 18 20 1014.0 - -
21/07:00pm - - - - - SE 33 39 18 21 1013.7 1013.6 -
21/06:30pm - - - - - SE 33 39 18 21 1013.4 - -
21/06:00pm - - - - - SE 32 37 17 20 1013.3 1013.2 -
21/05:30pm - - - - - SE 32 35 17 19 1013.0 - -
21/05:00pm - - - - - SE 32 37 17 20 1012.9 1012.8 -
21/04:30pm - - - - - SE 30 35 16 19 1012.7 - -
21/04:00pm - - - - - SE 28 33 15 18 1012.7 1012.6 -
21/03:30pm - - - - - SE 30 33 16 18 1012.7 - -
21/03:00pm - - - - - SE 30 35 16 19 1012.7 1012.6 -
21/02:30pm - - - - - SE 30 35 16 19 1012.8 - -
21/02:00pm - - - - - SE 32 35 17 19 1013.1 1012.9 -
21/01:30pm - - - - - SE 32 35 17 19 1013.4 - -
21/01:00pm - - - - - SE 32 37 17 20 1013.7 1013.6 -
21/12:30pm - - - - - SE 32 39 17 21 1014.1 - -
21/12:00pm - - - - - SE 33 39 18 21 1014.4 1014.3 -
21/11:30am - - - - - SE 33 39 18 21 1014.9 - -
21/11:00am - - - - - SE 33 37 18 20 1015.1 1015.1 -
21/10:30am - - - - - ESE 33 37 18 20 1015.6 - -
21/10:00am - - - - - ESE 32 35 17 19 1015.7 1015.6 -
21/09:30am - - - - - SE 30 35 16 19 1015.7 - -
21/09:00am - - - - - SE 32 35 17 19 1015.7 1015.6 -
21/08:30am - - - - - SE 32 37 17 20 1015.4 - -
21/08:00am - - - - - SE 32 35 17 19 1015.2 1015.0 -
21/07:30am - - - - - SE 30 33 16 18 1015.0 - -
21/07:00am - - - - - SE 26 30 14 16 1014.8 1014.6 -
21/06:30am - - - - - SE 26 32 14 17 1014.6 - -
21/06:00am - - - - - ESE 28 33 15 18 1014.5 1014.4 -
21/05:30am - - - - - ESE 26 32 14 17 1014.3 - -
21/05:00am - - - - - ESE 26 32 14 17 1014.2 1014.1 -
21/04:30am - - - - - ESE 26 32 14 17 1014.1 1014.0 -
21/04:00am - - - - - ESE 28 33 15 18 1014.1 1014.0 -
21/03:30am - - - - - ESE 28 35 15 19 1014.4 - -
21/03:00am - - - - - ESE 32 37 17 20 1014.5 1014.4 -
21/02:30am - - - - - ESE 32 35 17 19 1014.8 - -
21/02:00am - - - - - ESE 30 35 16 19 1014.9 1014.8 -
21/01:30am - - - - - ESE 33 39 18 21 1015.2 - -
21/01:00am - - - - - ESE 33 41 18 22 1015.5 1015.4 -
21/12:30am - - - - - ESE 35 41 19 22 1015.8 - -
21/12:00am - - - - - E 33 37 18 20 1015.8 1015.7 -
 
Date/Time
EST
Temp
°C
App
Temp
°C
Dew
Point
°C
Rel
Hum
%
Delta-T
°C
Wind Press
QNH
hPa
Press
MSL
hPa
Rain since
9am
mm
Dir  Spd
km/h
Gust
km/h
Spd
kts
Gust
kts
20/11:30pm - - - - - ESE 35 41 19 22 1016.0 - -

Other formats

Comma delimited format used in spreadsheet applications
http://www.bom.gov.au/fwo/IDQ60801/IDQ60801.95288.axf

JavaScript Object Notation format (JSON) in row-major order
http://www.bom.gov.au/fwo/IDQ60801/IDQ60801.95288.json

Data quality

Most of these data are generated automatically and are frequently updated. Quality checks on data are not normally performed. It is possible for incorrect values to appear. Refer to information at About Latest Weather Observations and please check the disclaimer before using these data.